YWG weather

Winnipeg / James Armstrong Richardson International Airport
Winnipeg, Manitoba, Canada

Public forecast

Using degrees Celsius for public forecast. Weather courtesy of forecast.io.

Current aviation weather report (METAR) for Winnipeg / James Armstrong Richardson International Airport

Retrieved 2019/10/21 03:00 UTC (33 minutes ago):

CYWG 210300Z 21004KT 15SM OVC140 08/06 A2983 RMK AC8 SLP113

Aviation forecast (TAF) for Winnipeg / James Armstrong Richardson International Airport

Retrieved 2019-10-21 00:42 UTC (3 hours ago):

TAF CYWG 202338Z 2100/2124 19005KT P6SM BKN160 OVC250 BECMG 2104/2106 32008KT FM210600 32008KT P6SM BKN120 FM210900 02008KT P6SM VCSH OVC070 FM211400 02012KT P6SM -RA BKN015 OVC040 FM211900 01020G30KT P6SM VCSH OVC020 RMK NXT FCST BY 210600Z